Time;durP1;ratioP1;P1;durP2;ratioP2;P2;SDS_P1;SDS_P2;PMS_P1;PMS_P2;Temp;Humidity;BMP_temperature;BMP_pressure;BME280_temperature;BME280_humidity;BME280_pressure;Samples;Min_cycle;Max_cycle;Signal;HPM_P1;HPM_P2
2022/07/15 00:00:39;;;;;;;1.20;0.80;;;24.70;46.50;;;;;;6076186;23;87528;-88
2022/07/15 00:03:05;;;;;;;0.95;0.70;;;24.70;46.80;;;;;;6074521;23;86768;-88
2022/07/15 00:05:33;;;;;;;1.55;1.00;;;24.70;46.70;;;;;;6076376;23;87390;-88
2022/07/15 00:08:04;;;;;;;1.17;0.70;;;24.70;46.70;;;;;;6076550;23;88271;-88
2022/07/15 00:10:30;;;;;;;2.33;1.05;;;24.70;46.60;;;;;;6076211;23;88057;-88
2022/07/15 00:12:58;;;;;;;1.20;0.73;;;24.70;46.50;;;;;;6050018;23;87740;-88
2022/07/15 00:15:26;;;;;;;1.17;0.80;;;24.70;46.70;;;;;;6076621;23;86824;-88
2022/07/15 00:17:53;;;;;;;1.40;0.83;;;24.70;46.80;;;;;;6076904;23;88689;-88
2022/07/15 00:20:20;;;;;;;1.40;0.82;;;24.70;46.70;;;;;;6076627;23;87908;-88
2022/07/15 00:22:47;;;;;;;1.73;1.00;;;24.70;46.80;;;;;;6076752;23;86651;-88
2022/07/15 00:25:14;;;;;;;1.25;0.88;;;24.70;47.00;;;;;;6076549;23;86915;-88
2022/07/15 00:28:01;;;;;;;2.10;0.88;;;24.70;47.00;;;;;;6076944;23;87994;-88
2022/07/15 00:30:35;;;;;;;1.63;0.90;;;24.70;47.00;;;;;;6076070;23;86683;-88
2022/07/15 00:33:00;;;;;;;0.90;0.77;;;24.70;47.10;;;;;;6049909;23;86861;-88
2022/07/15 00:35:28;;;;;;;3.15;1.30;;;24.70;47.20;;;;;;6076626;23;87383;-88
2022/07/15 00:37:53;;;;;;;1.40;0.85;;;24.60;47.30;;;;;;6075607;23;89130;-88
2022/07/15 00:40:19;;;;;;;1.45;0.85;;;24.60;47.10;;;;;;6075484;23;89401;-88
2022/07/15 00:42:46;;;;;;;1.17;0.80;;;24.60;47.20;;;;;;6050490;23;87088;-88
2022/07/15 00:45:22;;;;;;;1.50;0.93;;;24.60;47.30;;;;;;6075893;23;87500;-88
2022/07/15 00:47:50;;;;;;;1.88;1.00;;;24.60;47.30;;;;;;6050442;23;90627;-88
2022/07/15 00:50:18;;;;;;;1.60;0.85;;;24.60;47.50;;;;;;6075728;23;92304;-88
2022/07/15 00:52:48;;;;;;;0.82;0.70;;;24.60;47.40;;;;;;6076662;23;86870;-88
2022/07/15 00:55:14;;;;;;;1.98;0.90;;;24.60;47.50;;;;;;6076426;23;85959;-88
2022/07/15 00:57:43;;;;;;;1.65;0.88;;;24.60;47.70;;;;;;6075494;23;88490;-88
2022/07/15 01:00:13;;;;;;;1.40;1.00;;;24.60;47.60;;;;;;6050054;23;91117;-88
2022/07/15 01:02:49;;;;;;;1.13;0.82;;;24.60;47.70;;;;;;6049684;23;87847;-88
2022/07/15 01:05:16;;;;;;;1.02;0.77;;;24.60;47.70;;;;;;6075963;23;87089;-89
2022/07/15 01:07:42;;;;;;;1.95;1.05;;;24.60;47.70;;;;;;6076558;23;88036;-88
2022/07/15 01:10:08;;;;;;;1.40;0.70;;;24.60;47.70;;;;;;6049589;23;90286;-88
2022/07/15 01:12:37;;;;;;;0.95;0.80;;;24.60;47.70;;;;;;6074748;23;86717;-88
2022/07/15 01:15:04;;;;;;;1.50;0.90;;;24.60;47.70;;;;;;6075511;23;86784;-88
2022/07/15 01:17:30;;;;;;;1.30;0.82;;;24.60;47.90;;;;;;6075671;23;87734;-88
2022/07/15 01:19:56;;;;;;;1.67;1.10;;;24.60;48.10;;;;;;6077221;23;87777;-88
2022/07/15 01:22:22;;;;;;;2.13;1.00;;;24.50;48.00;;;;;;6075078;23;87199;-88
2022/07/15 01:24:48;;;;;;;1.50;1.00;;;24.60;48.00;;;;;;6074713;23;89341;-88
2022/07/15 01:27:13;;;;;;;1.45;0.90;;;24.60;48.10;;;;;;6073691;23;90689;-88
2022/07/15 01:29:39;;;;;;;1.77;0.90;;;24.50;48.10;;;;;;6076169;23;89138;-88
2022/07/15 01:32:05;;;;;;;1.63;1.10;;;24.60;48.10;;;;;;6077362;23;86706;-88
2022/07/15 01:34:30;;;;;;;1.30;0.80;;;24.50;48.00;;;;;;6076458;23;87219;-88
2022/07/15 01:36:56;;;;;;;1.02;0.70;;;24.50;48.20;;;;;;6075290;23;88381;-88
2022/07/15 01:39:24;;;;;;;1.23;0.88;;;24.50;48.20;;;;;;6076303;23;86902;-88
2022/07/15 01:41:52;;;;;;;2.05;1.17;;;24.50;48.20;;;;;;6076423;23;86734;-88
2022/07/15 01:44:18;;;;;;;1.33;1.00;;;24.50;48.30;;;;;;6074967;23;90666;-88
2022/07/15 01:46:43;;;;;;;0.98;0.80;;;24.50;48.40;;;;;;6076206;23;86752;-88
2022/07/15 01:49:31;;;;;;;1.48;1.05;;;24.50;48.60;;;;;;6076384;23;88167;-88
2022/07/15 01:51:58;;;;;;;0.93;0.85;;;24.50;48.50;;;;;;6075514;23;87803;-88
2022/07/15 01:54:25;;;;;;;1.00;0.90;;;24.50;48.50;;;;;;6075298;23;87798;-88
2022/07/15 01:56:52;;;;;;;1.63;1.02;;;24.50;48.50;;;;;;6076502;23;88305;-88
2022/07/15 01:59:19;;;;;;;1.23;0.80;;;24.50;48.60;;;;;;6075507;23;87215;-88
2022/07/15 02:01:45;;;;;;;1.55;1.23;;;24.40;48.50;;;;;;6049348;23;87059;-88
2022/07/15 02:04:12;;;;;;;0.82;0.82;;;24.50;48.60;;;;;;6076259;23;87247;-87
2022/07/15 02:06:38;;;;;;;1.35;0.95;;;24.50;48.90;;;;;;6074933;23;88339;-88
2022/07/15 02:09:04;;;;;;;1.20;1.00;;;24.50;48.80;;;;;;6076041;23;87861;-88
2022/07/15 02:11:33;;;;;;;1.33;0.82;;;24.50;49.00;;;;;;6075036;23;86867;-88
2022/07/15 02:13:59;;;;;;;1.25;0.80;;;24.50;48.90;;;;;;6074077;23;90451;-88
2022/07/15 02:16:29;;;;;;;1.30;0.90;;;24.40;48.80;;;;;;6075249;23;89251;-88
2022/07/15 02:18:54;;;;;;;1.73;0.93;;;24.40;48.80;;;;;;6075416;23;89052;-88
2022/07/15 02:21:20;;;;;;;1.55;1.00;;;24.40;48.90;;;;;;6050629;23;86666;-88
2022/07/15 02:23:46;;;;;;;1.23;0.80;;;24.40;49.00;;;;;;6075903;23;87757;-88
2022/07/15 02:26:12;;;;;;;0.82;0.73;;;24.40;49.00;;;;;;6075940;23;87368;-88
2022/07/15 02:28:37;;;;;;;2.15;0.98;;;24.40;49.00;;;;;;6076672;23;88368;-88
2022/07/15 02:31:03;;;;;;;1.35;0.70;;;24.40;49.00;;;;;;6076538;23;87251;-88
2022/07/15 02:33:29;;;;;;;0.80;0.80;;;24.40;49.00;;;;;;6076968;23;86725;-88
2022/07/15 02:35:54;;;;;;;1.08;0.98;;;24.40;49.70;;;;;;6075616;23;88225;-88
2022/07/15 02:38:22;;;;;;;1.35;0.85;;;24.40;49.00;;;;;;6076318;23;88184;-88
2022/07/15 02:40:48;;;;;;;0.80;0.80;;;24.40;49.00;;;;;;6076497;23;88126;-88
2022/07/15 02:43:14;;;;;;;1.25;0.90;;;24.40;49.00;;;;;;6050917;23;90493;-88
2022/07/15 02:45:40;;;;;;;2.00;0.95;;;24.40;49.10;;;;;;6076849;23;88308;-88
2022/07/15 02:48:06;;;;;;;0.90;0.70;;;24.40;49.20;;;;;;6077103;23;88161;-88
2022/07/15 02:50:32;;;;;;;1.15;0.90;;;24.40;49.10;;;;;;6077113;23;87492;-87
2022/07/15 02:52:59;;;;;;;2.35;0.90;;;24.40;49.20;;;;;;6077529;23;87141;-88
2022/07/15 02:55:24;;;;;;;1.30;0.80;;;24.30;49.20;;;;;;6076586;23;88477;-88
2022/07/15 02:57:50;;;;;;;1.67;0.80;;;24.40;49.20;;;;;;6077423;23;88326;-88
2022/07/15 03:00:24;;;;;;;1.30;0.80;;;24.40;49.20;;;;;;6050392;23;86761;-88
2022/07/15 03:02:49;;;;;;;1.48;0.82;;;24.40;49.30;;;;;;6050067;23;90742;-88
2022/07/15 03:05:17;;;;;;;1.55;1.10;;;24.40;49.30;;;;;;6076521;23;88870;-87
2022/07/15 03:07:43;;;;;;;1.15;0.80;;;24.40;49.30;;;;;;6076873;23;88897;-88
2022/07/15 03:10:10;;;;;;;1.02;0.93;;;24.40;49.40;;;;;;6077555;23;86729;-88
2022/07/15 03:12:36;;;;;;;1.55;1.13;;;24.30;49.50;;;;;;6077608;23;87357;-88
2022/07/15 03:15:02;;;;;;;1.65;1.02;;;24.40;49.60;;;;;;6075994;23;87640;-88
2022/07/15 03:17:28;;;;;;;1.35;0.80;;;24.30;49.50;;;;;;6076495;23;89595;-88
2022/07/15 03:19:55;;;;;;;2.15;0.98;;;24.30;49.30;;;;;;6076111;23;86843;-87
2022/07/15 03:22:22;;;;;;;1.63;0.90;;;24.30;49.20;;;;;;6050773;23;90236;-88
2022/07/15 03:24:48;;;;;;;1.30;0.90;;;24.30;49.70;;;;;;6076939;23;87337;-88
2022/07/15 03:27:15;;;;;;;0.90;0.80;;;24.30;49.70;;;;;;6075905;23;88111;-88
2022/07/15 03:29:41;;;;;;;2.25;0.90;;;24.30;49.70;;;;;;6077141;23;87731;-88
2022/07/15 03:32:07;;;;;;;1.35;0.98;;;24.30;49.80;;;;;;6076325;23;87208;-88
2022/07/15 03:34:33;;;;;;;1.30;0.80;;;24.30;49.70;;;;;;6050231;23;90857;-88
2022/07/15 03:36:59;;;;;;;1.73;0.90;;;24.30;49.70;;;;;;6075443;23;87128;-88
2022/07/15 03:39:26;;;;;;;1.10;1.00;;;24.30;49.80;;;;;;6076827;23;86767;-88
2022/07/15 03:41:54;;;;;;;2.15;1.05;;;24.30;49.90;;;;;;6076725;23;86832;-88
2022/07/15 03:44:28;;;;;;;1.15;0.90;;;24.30;50.00;;;;;;6076525;23;87209;-88
2022/07/15 03:46:54;;;;;;;1.13;0.80;;;24.30;50.00;;;;;;6077186;23;88298;-87
2022/07/15 03:49:19;;;;;;;1.02;0.80;;;24.30;50.10;;;;;;6075723;23;86841;-87
2022/07/15 03:51:45;;;;;;;1.48;0.93;;;24.30;50.10;;;;;;6074748;23;86767;-88
2022/07/15 03:54:11;;;;;;;1.05;0.80;;;24.30;50.10;;;;;;6074952;23;88480;-88
2022/07/15 03:56:37;;;;;;;1.60;1.02;;;24.30;50.30;;;;;;6074258;23;91188;-87
2022/07/15 03:59:03;;;;;;;1.38;0.88;;;24.30;50.10;;;;;;6050627;23;87742;-88
2022/07/15 04:01:28;;;;;;;1.10;1.00;;;24.20;50.20;;;;;;6076637;23;86869;-87
2022/07/15 04:03:54;;;;;;;1.10;0.95;;;24.20;50.00;;;;;;6076314;23;87614;-88
2022/07/15 04:06:20;;;;;;;1.10;0.80;;;24.20;50.10;;;;;;6076633;23;88252;-87
2022/07/15 04:08:46;;;;;;;1.33;1.10;;;24.30;50.10;;;;;;6076379;23;86668;-87
2022/07/15 04:11:13;;;;;;;0.95;0.68;;;24.20;50.30;;;;;;6077660;23;87401;-87
2022/07/15 04:13:39;;;;;;;1.30;0.90;;;24.20;50.10;;;;;;6077383;23;88514;-87
2022/07/15 04:16:06;;;;;;;1.35;0.93;;;24.20;50.20;;;;;;6076080;23;88268;-87
2022/07/15 04:18:32;;;;;;;1.42;0.90;;;24.20;50.40;;;;;;6076186;23;87689;-88
2022/07/15 04:20:58;;;;;;;0.82;0.70;;;24.20;50.30;;;;;;6049948;23;90755;-87
2022/07/15 04:23:25;;;;;;;1.52;1.10;;;24.20;50.40;;;;;;6074888;23;91234;-88
2022/07/15 04:25:53;;;;;;;1.35;0.88;;;24.20;50.30;;;;;;6076257;23;87893;-88
2022/07/15 04:28:23;;;;;;;0.73;0.73;;;24.20;50.30;;;;;;6050824;23;86817;-88
2022/07/15 04:30:49;;;;;;;1.35;0.90;;;24.20;50.40;;;;;;6076057;23;87374;-88
2022/07/15 04:33:15;;;;;;;1.50;0.80;;;24.20;50.50;;;;;;6077001;23;88071;-87
2022/07/15 04:35:41;;;;;;;0.63;0.63;;;24.20;50.30;;;;;;6076471;23;88231;-87
2022/07/15 04:38:07;;;;;;;1.25;0.80;;;24.20;50.50;;;;;;6075916;23;86827;-87
2022/07/15 04:40:33;;;;;;;1.50;0.80;;;24.20;50.30;;;;;;6050747;23;89972;-87
2022/07/15 04:42:59;;;;;;;1.33;1.10;;;24.20;50.70;;;;;;6075374;23;88727;-87
2022/07/15 04:45:25;;;;;;;1.08;0.90;;;24.20;50.50;;;;;;6076266;23;89050;-87
2022/07/15 04:47:51;;;;;;;1.30;1.10;;;24.20;50.50;;;;;;6076204;23;86807;-87
2022/07/15 04:53:01;;;;;;;1.15;0.90;;;24.20;50.60;;;;;;6075816;23;87124;-87
2022/07/15 04:55:27;;;;;;;1.35;1.02;;;24.20;50.60;;;;;;6076192;23;88047;-87
2022/07/15 04:57:55;;;;;;;0.93;0.85;;;24.20;51.20;;;;;;6077167;23;86850;-87
2022/07/15 05:00:28;;;;;;;1.07;0.97;;;24.10;50.50;;;;;;6077532;23;87562;-87
2022/07/15 05:02:54;;;;;;;1.23;0.82;;;24.10;50.60;;;;;;6074063;23;90547;-88
2022/07/15 05:05:20;;;;;;;1.17;0.95;;;24.20;50.30;;;;;;6076464;23;86959;-88
2022/07/15 05:07:46;;;;;;;1.05;1.00;;;24.20;50.30;;;;;;6075799;23;88110;-88
2022/07/15 05:10:12;;;;;;;1.08;0.90;;;24.20;50.40;;;;;;6076341;23;86936;-88
2022/07/15 05:12:39;;;;;;;1.20;0.85;;;24.20;50.40;;;;;;6077068;23;88375;-88
2022/07/15 05:15:05;;;;;;;1.00;0.80;;;24.20;50.40;;;;;;6076011;23;87730;-87
2022/07/15 05:17:31;;;;;;;1.40;1.02;;;24.20;50.30;;;;;;6076129;23;86767;-87
2022/07/15 05:19:56;;;;;;;0.85;0.70;;;24.20;50.40;;;;;;6049586;23;88780;-88
2022/07/15 05:22:22;;;;;;;0.80;0.77;;;24.20;50.30;;;;;;6076078;23;87039;-88
2022/07/15 05:24:48;;;;;;;1.40;0.88;;;24.20;50.40;;;;;;6077009;23;88253;-87
2022/07/15 05:27:14;;;;;;;1.00;0.90;;;24.20;50.60;;;;;;6075940;23;87146;-87
2022/07/15 05:29:41;;;;;;;1.70;1.00;;;24.10;50.50;;;;;;6074507;23;91278;-87
2022/07/15 05:32:07;;;;;;;1.67;1.10;;;24.10;50.40;;;;;;6075300;23;89091;-86
2022/07/15 05:34:32;;;;;;;1.13;0.98;;;24.10;50.40;;;;;;6074996;23;88193;-86
2022/07/15 05:36:58;;;;;;;1.35;0.90;;;24.20;50.50;;;;;;6043969;23;87325;-87
2022/07/15 05:39:24;;;;;;;1.25;1.00;;;24.20;50.70;;;;;;6043895;23;87439;-87
2022/07/15 05:41:52;;;;;;;1.40;0.88;;;24.20;50.50;;;;;;6043705;23;88496;-87
2022/07/15 05:44:19;;;;;;;1.27;0.82;;;24.20;50.70;;;;;;6019695;23;89614;-87
2022/07/15 05:46:45;;;;;;;0.90;0.90;;;24.10;50.60;;;;;;6044291;23;86708;-87
2022/07/15 05:49:10;;;;;;;1.13;0.90;;;24.20;50.80;;;;;;6044535;23;87178;-87
2022/07/15 05:51:37;;;;;;;0.95;0.80;;;24.20;50.60;;;;;;6019076;23;90118;-87
2022/07/15 05:54:03;;;;;;;0.80;0.80;;;24.20;50.60;;;;;;6044801;23;86983;-87
2022/07/15 05:56:28;;;;;;;1.13;0.82;;;24.20;50.40;;;;;;6019584;23;87993;-87
2022/07/15 05:58:54;;;;;;;1.00;0.90;;;24.30;50.50;;;;;;6043422;23;86846;-86
2022/07/15 06:01:21;;;;;;;2.15;1.30;;;24.30;50.40;;;;;;6044745;23;90395;-86
2022/07/15 06:03:47;;;;;;;2.75;1.00;;;24.30;50.40;;;;;;6021968;23;90178;-85
2022/07/15 06:06:13;;;;;;;1.40;1.00;;;24.40;50.10;;;;;;6020511;23;86877;-84
2022/07/15 06:08:38;;;;;;;1.73;1.10;;;24.40;50.50;;;;;;6066297;23;87442;-85
2022/07/15 06:11:04;;;;;;;4.50;1.40;;;24.40;50.60;;;;;;6073766;23;87205;-85
2022/07/15 06:13:30;;;;;;;1.48;1.20;;;24.30;50.60;;;;;;6072629;23;88153;-87
2022/07/15 06:15:56;;;;;;;8.60;2.58;;;24.30;50.80;;;;;;6073517;23;87307;-85
2022/07/15 06:18:22;;;;;;;8.30;2.25;;;24.30;50.10;;;;;;6075525;23;87496;-88
2022/07/15 06:20:47;;;;;;;9.20;2.47;;;24.30;49.80;;;;;;6073502;23;89402;-87
2022/07/15 06:23:13;;;;;;;12.45;2.92;;;24.30;49.90;;;;;;6048433;23;90744;-88
2022/07/15 06:25:39;;;;;;;5.32;2.25;;;24.30;48.90;;;;;;6072948;23;86895;-87
2022/07/15 06:28:13;;;;;;;10.48;2.75;;;24.30;48.90;;;;;;6072553;23;86980;-86
2022/07/15 06:30:39;;;;;;;17.15;2.72;;;24.30;48.60;;;;;;6072963;23;91601;-86
2022/07/15 06:33:05;;;;;;;12.52;2.85;;;24.30;49.10;;;;;;6076136;23;86855;-86
2022/07/15 06:35:30;;;;;;;10.18;2.47;;;24.30;48.60;;;;;;6049682;23;87390;-87
2022/07/15 06:37:56;;;;;;;8.15;2.30;;;24.20;48.70;;;;;;6075133;23;86807;-87
2022/07/15 06:40:22;;;;;;;9.68;2.50;;;24.20;48.40;;;;;;6075931;23;88439;-83
2022/07/15 06:42:47;;;;;;;9.88;2.65;;;24.20;48.60;;;;;;6071690;23;87270;-84
2022/07/15 06:45:13;;;;;;;9.02;2.45;;;24.20;48.00;;;;;;6073665;23;87849;-84
2022/07/15 06:47:42;;;;;;;9.18;2.22;;;24.20;47.70;;;;;;6073148;23;87796;-84
2022/07/15 06:50:09;;;;;;;6.20;2.20;;;24.20;47.80;;;;;;6074075;23;88554;-85
2022/07/15 06:52:35;;;;;;;5.75;2.13;;;24.10;47.60;;;;;;6046782;23;91095;-83
2022/07/15 06:55:01;;;;;;;7.93;2.30;;;24.10;47.40;;;;;;6073951;23;86904;-84
2022/07/15 06:57:28;;;;;;;8.65;2.10;;;24.00;47.40;;;;;;6073153;23;86830;-84
2022/07/15 06:59:54;;;;;;;11.18;2.45;;;24.00;47.30;;;;;;5976948;23;90298;-84
2022/07/15 07:02:19;;;;;;;12.02;2.50;;;24.00;47.30;;;;;;6071130;23;88179;-84
2022/07/15 07:04:45;;;;;;;6.45;2.00;;;24.00;47.20;;;;;;6073410;23;86753;-85
2022/07/15 07:07:11;;;;;;;6.72;2.05;;;24.00;47.50;;;;;;6073869;23;87330;-84
2022/07/15 07:09:39;;;;;;;38.17;7.65;;;24.00;47.50;;;;;;6073912;23;89188;-88
2022/07/15 07:12:08;;;;;;;57.00;10.15;;;24.10;47.20;;;;;;6076570;23;89214;-87
2022/07/15 07:14:34;;;;;;;50.55;9.88;;;24.00;47.30;;;;;;6077013;23;86698;-87
2022/07/15 07:16:59;;;;;;;41.95;8.52;;;24.00;47.50;;;;;;6076469;23;87444;-87
2022/07/15 07:19:25;;;;;;;33.25;7.30;;;24.00;47.60;;;;;;6076855;23;87700;-88
2022/07/15 07:21:50;;;;;;;29.08;6.05;;;24.10;47.60;;;;;;6074164;23;91252;-88
2022/07/15 07:24:16;;;;;;;20.02;4.50;;;24.10;48.00;;;;;;6050687;23;86821;-87
2022/07/15 07:26:41;;;;;;;24.15;4.47;;;24.10;47.80;;;;;;6075676;23;86314;-87
2022/07/15 07:29:07;;;;;;;16.65;4.40;;;24.10;47.60;;;;;;6050697;23;90301;-87
2022/07/15 07:31:33;;;;;;;21.75;4.32;;;24.10;47.60;;;;;;6076938;23;88381;-85
2022/07/15 07:33:59;;;;;;;14.82;3.60;;;24.10;47.60;;;;;;6076203;23;87703;-85
2022/07/15 07:36:25;;;;;;;21.65;4.15;;;24.10;47.30;;;;;;6075063;23;86773;-86
2022/07/15 07:38:51;;;;;;;17.67;3.20;;;24.10;47.50;;;;;;6050148;23;90309;-85
2022/07/15 07:41:17;;;;;;;13.50;3.55;;;24.10;47.60;;;;;;6076672;23;88342;-85
2022/07/15 07:43:43;;;;;;;15.07;3.63;;;24.10;48.10;;;;;;6077162;23;86791;-84
2022/07/15 07:46:11;;;;;;;9.10;3.03;;;24.20;47.90;;;;;;6076246;23;86925;-85
2022/07/15 07:48:38;;;;;;;10.32;2.45;;;24.30;47.20;;;;;;6075920;23;88326;-84
2022/07/15 07:51:04;;;;;;;9.32;2.30;;;24.30;47.00;;;;;;6074560;23;87076;-84
2022/07/15 07:53:38;;;;;;;11.50;2.10;;;24.30;45.90;;;;;;6074951;23;87227;-83
2022/07/15 07:56:04;;;;;;;8.07;1.70;;;24.20;44.50;;;;;;6074531;23;86773;-85
2022/07/15 07:58:29;;;;;;;6.18;1.40;;;24.20;44.20;;;;;;6075246;23;91041;-85
2022/07/15 08:00:55;;;;;;;8.10;2.08;;;24.10;44.10;;;;;;6076061;23;88688;-85
2022/07/15 08:03:21;;;;;;;13.18;1.75;;;24.10;44.40;;;;;;6075864;23;86645;-85
2022/07/15 08:05:46;;;;;;;7.90;1.92;;;24.10;44.50;;;;;;6075333;23;87020;-85
2022/07/15 08:08:14;;;;;;;5.88;1.52;;;24.10;44.20;;;;;;6074987;23;88614;-85
2022/07/15 08:10:42;;;;;;;6.95;1.48;;;24.10;44.00;;;;;;6051733;23;91278;-85
2022/07/15 08:13:08;;;;;;;9.80;2.08;;;24.00;44.30;;;;;;6074844;23;86604;-85
2022/07/15 08:15:34;;;;;;;8.82;1.88;;;24.00;44.20;;;;;;6075694;23;87270;-85
2022/07/15 08:18:01;;;;;;;10.70;1.80;;;24.10;44.60;;;;;;6074827;23;87335;-85
2022/07/15 08:20:29;;;;;;;8.68;1.70;;;24.10;44.80;;;;;;6075461;23;86818;-85
2022/07/15 08:23:01;;;;;;;6.88;2.10;;;24.10;44.00;;;;;;6049107;23;88417;-85
2022/07/15 08:25:28;;;;;;;5.85;1.70;;;24.00;44.00;;;;;;6075032;23;87522;-85
2022/07/15 08:27:59;;;;;;;6.93;1.92;;;24.00;44.30;;;;;;6075208;23;87340;-85
2022/07/15 08:30:26;;;;;;;5.53;1.77;;;24.00;44.20;;;;;;6049759;23;89122;-85
2022/07/15 08:32:51;;;;;;;5.43;1.60;;;24.10;44.50;;;;;;6075689;23;86719;-85
2022/07/15 08:35:17;;;;;;;13.68;2.05;;;24.10;44.50;;;;;;6075910;23;86740;-84
2022/07/15 08:37:43;;;;;;;9.27;1.70;;;24.10;44.90;;;;;;6075574;23;87407;-85
2022/07/15 08:40:10;;;;;;;15.38;1.85;;;24.20;45.00;;;;;;6077029;23;88322;-85
2022/07/15 08:42:39;;;;;;;5.05;1.55;;;24.20;45.10;;;;;;6074816;23;86773;-85
2022/07/15 08:45:06;;;;;;;7.95;1.30;;;24.20;43.90;;;;;;6076327;23;86733;-86
2022/07/15 08:47:32;;;;;;;6.63;1.33;;;24.20;43.40;;;;;;6073950;23;89539;-86
2022/07/15 08:49:59;;;;;;;10.57;2.17;;;24.20;43.60;;;;;;6049583;23;90957;-86
2022/07/15 08:52:25;;;;;;;9.93;1.65;;;24.20;42.70;;;;;;6076367;23;86781;-87
2022/07/15 08:54:52;;;;;;;20.80;2.55;;;24.30;42.60;;;;;;6076641;23;87273;-88
2022/07/15 08:57:18;;;;;;;7.03;1.20;;;24.30;43.70;;;;;;6077168;23;87669;-86
2022/07/15 08:59:47;;;;;;;12.50;1.70;;;24.40;44.00;;;;;;6076055;23;88290;-87
2022/07/15 09:02:14;;;;;;;13.45;1.52;;;24.30;44.00;;;;;;6049494;23;86788;-87
2022/07/15 09:05:17;;;;;;;10.90;1.50;;;24.30;43.40;;;;;;6075809;23;87211;-86
2022/07/15 09:08:01;;;;;;;5.38;1.45;;;24.40;44.80;;;;;;6076505;23;88484;-87
2022/07/15 09:10:54;;;;;;;11.45;1.77;;;24.40;44.90;;;;;;6076523;23;88154;-87
2022/07/15 09:13:31;;;;;;;6.28;1.23;;;24.40;44.90;;;;;;6075131;23;87728;-86
2022/07/15 09:16:05;;;;;;;13.95;1.45;;;24.40;44.90;;;;;;6075737;23;87410;-86
2022/07/15 09:18:35;;;;;;;4.72;1.30;;;24.30;44.80;;;;;;6075921;23;87744;-84
2022/07/15 09:21:01;;;;;;;;;;;24.40;44.60;;;;;;6076411;23;87750;-85
2022/07/15 09:23:31;;;;;;;6.57;1.58;;;24.40;44.30;;;;;;6077468;23;87115;-84
2022/07/15 09:26:38;;;;;;;7.53;1.27;;;24.40;44.30;;;;;;6075460;23;87445;-84
2022/07/15 09:35:04;;;;;;;10.60;2.10;;;24.40;44.50;;;;;;6076538;23;87177;-85
2022/07/15 09:37:30;;;;;;;8.63;1.67;;;24.40;44.40;;;;;;6077458;23;87378;-85
2022/07/15 09:39:57;;;;;;;9.02;1.58;;;24.50;43.30;;;;;;6075574;23;89585;-84
2022/07/15 09:42:23;;;;;;;8.00;1.60;;;24.40;43.30;;;;;;6075194;23;88943;-86
2022/07/15 09:44:51;;;;;;;9.05;1.75;;;24.40;43.30;;;;;;6077088;23;86821;-85
2022/07/15 09:47:19;;;;;;;12.68;1.83;;;24.40;43.00;;;;;;6075696;23;87321;-84
2022/07/15 09:49:54;;;;;;;15.02;1.65;;;24.40;42.60;;;;;;6075543;23;88634;-84
2022/07/15 09:52:19;;;;;;;11.18;1.88;;;24.40;43.10;;;;;;6049568;23;89369;-84
2022/07/15 09:54:47;;;;;;;11.07;1.85;;;24.40;43.20;;;;;;6075725;23;86895;-84
2022/07/15 09:57:16;;;;;;;8.65;1.65;;;24.40;43.60;;;;;;6076157;23;86329;-86
2022/07/15 09:59:46;;;;;;;11.57;2.17;;;24.40;43.50;;;;;;6076018;23;87166;-84
2022/07/15 10:02:12;;;;;;;7.85;1.88;;;24.40;43.60;;;;;;6075027;23;88268;-84
2022/07/15 10:04:39;;;;;;;5.00;1.33;;;24.40;43.70;;;;;;6075762;23;88207;-84
2022/07/15 10:07:05;;;;;;;7.00;1.65;;;24.50;43.50;;;;;;6075806;23;86814;-84
2022/07/15 10:09:33;;;;;;;9.82;2.22;;;24.40;42.90;;;;;;6074696;23;87686;-83
2022/07/15 10:12:24;;;;;;;8.25;1.50;;;24.50;43.60;;;;;;6074778;23;87726;-83
2022/07/15 10:15:24;;;;;;;5.20;0.98;;;24.50;43.00;;;;;;6074756;23;87685;-83
2022/07/15 10:18:09;;;;;;;11.23;1.15;;;24.40;41.30;;;;;;6048670;23;90647;-83
2022/07/15 10:21:06;;;;;;;5.85;1.20;;;24.40;42.10;;;;;;6075032;23;88453;-83
2022/07/15 10:23:55;;;;;;;6.57;1.50;;;24.30;41.70;;;;;;6075894;23;88239;-83
2022/07/15 10:26:24;;;;;;;15.25;2.03;;;24.40;42.30;;;;;;6048832;23;86871;-83
2022/07/15 10:28:51;;;;;;;8.20;1.57;;;24.30;42.80;;;;;;6075063;23;87321;-84
2022/07/15 10:31:16;;;;;;;8.88;1.42;;;24.40;43.00;;;;;;6046817;23;92935;-83
2022/07/15 10:34:02;;;;;;;10.55;1.27;;;24.50;42.50;;;;;;6075233;23;89117;-83
2022/07/15 10:36:47;;;;;;;19.05;1.65;;;24.50;41.70;;;;;;6049080;23;86917;-83
2022/07/15 10:39:17;;;;;;;8.82;1.40;;;24.50;42.00;;;;;;6072065;23;86874;-85
2022/07/15 10:42:04;;;;;;;9.45;1.38;;;24.50;42.20;;;;;;6074097;23;88548;-83
2022/07/15 10:44:33;;;;;;;6.60;1.35;;;24.50;42.30;;;;;;6074142;23;88183;-82
2022/07/15 10:47:14;;;;;;;5.28;1.30;;;24.40;42.00;;;;;;6075049;23;87278;-83
2022/07/15 10:49:41;;;;;;;12.27;1.55;;;24.40;42.40;;;;;;6076093;23;86917;-84
2022/07/15 10:52:17;;;;;;;9.40;1.20;;;24.40;42.60;;;;;;6075187;23;87866;-83
2022/07/15 10:54:45;;;;;;;6.68;1.30;;;24.50;43.30;;;;;;6076013;23;88143;-83
2022/07/15 10:57:13;;;;;;;3.87;0.83;;;24.50;42.20;;;;;;6074620;23;87903;-83
2022/07/15 10:59:50;;;;;;;6.20;1.25;;;24.40;42.00;;;;;;6076218;23;86729;-83
2022/07/15 11:02:18;;;;;;;2.78;1.02;;;24.50;42.10;;;;;;6075508;23;87196;-83
2022/07/15 11:04:44;;;;;;;2.05;0.80;;;24.50;42.10;;;;;;6076289;23;87228;-83
2022/07/15 11:07:10;;;;;;;6.80;1.00;;;24.50;41.70;;;;;;6050438;23;86756;-83
2022/07/15 11:09:53;;;;;;;7.13;1.23;;;24.60;41.20;;;;;;6049583;23;90110;-83
2022/07/15 11:12:28;;;;;;;9.65;1.70;;;24.60;41.90;;;;;;6050916;23;90440;-84
2022/07/15 11:14:56;;;;;;;1.42;0.70;;;24.70;42.00;;;;;;6077194;23;88224;-83
2022/07/15 11:17:39;;;;;;;2.83;0.98;;;24.70;42.30;;;;;;6077747;23;86826;-84
2022/07/15 11:20:14;;;;;;;4.05;1.02;;;24.70;42.50;;;;;;6076346;23;86724;-84
2022/07/15 11:23:01;;;;;;;6.05;1.20;;;24.70;42.60;;;;;;6049545;23;92632;-83
2022/07/15 11:25:36;;;;;;;4.25;1.10;;;24.70;42.70;;;;;;6049604;23;92348;-85
2022/07/15 11:28:13;;;;;;;9.23;1.52;;;24.70;42.60;;;;;;6074995;23;86771;-83
2022/07/15 11:30:53;;;;;;;3.95;1.20;;;24.70;42.80;;;;;;6076280;23;87089;-83
2022/07/15 11:33:21;;;;;;;6.85;1.30;;;24.70;42.60;;;;;;6075240;23;87842;-84
2022/07/15 11:35:54;;;;;;;3.83;1.00;;;24.70;42.60;;;;;;6075766;23;88154;-84
2022/07/15 11:38:23;;;;;;;14.82;1.65;;;24.80;43.00;;;;;;6075115;23;86783;-83
2022/07/15 11:46:44;;;;;;;11.70;1.60;;;24.90;42.40;;;;;;6075995;23;87268;-83
2022/07/15 11:49:10;;;;;;;10.57;1.30;;;24.90;42.30;;;;;;6076676;23;87857;-83
2022/07/15 11:51:35;;;;;;;22.38;2.03;;;24.90;42.30;;;;;;6075240;23;87429;-83
2022/07/15 11:54:01;;;;;;;9.55;1.33;;;24.90;43.00;;;;;;6075534;23;88520;-83
2022/07/15 11:56:27;;;;;;;8.02;1.50;;;24.90;43.20;;;;;;6075788;23;88102;-83
2022/07/15 11:58:55;;;;;;;8.52;1.55;;;24.90;43.20;;;;;;6073931;23;86826;-84
2022/07/15 12:01:24;;;;;;;11.52;1.35;;;24.90;43.30;;;;;;6049548;23;90210;-83
2022/07/15 12:03:52;;;;;;;8.18;1.38;;;24.90;42.70;;;;;;6076109;23;88228;-84
2022/07/15 12:06:32;;;;;;;10.75;1.98;;;24.90;42.90;;;;;;6049595;23;89719;-83
2022/07/15 12:09:00;;;;;;;15.57;1.77;;;24.90;43.10;;;;;;6076398;23;86690;-83
2022/07/15 12:11:27;;;;;;;11.85;1.48;;;24.90;43.30;;;;;;6048885;23;90323;-84
2022/07/15 12:14:09;;;;;;;7.05;1.30;;;24.80;43.30;;;;;;6047580;23;90912;-83
2022/07/15 12:16:36;;;;;;;4.30;1.17;;;24.80;42.70;;;;;;6074407;23;93275;-83
2022/07/15 12:19:26;;;;;;;4.75;0.98;;;24.80;42.50;;;;;;5992240;23;86880;-83
2022/07/15 12:21:55;;;;;;;5.72;1.17;;;24.80;40.30;;;;;;6076521;23;86888;-82
2022/07/15 12:24:23;;;;;;;5.10;1.02;;;24.80;41.70;;;;;;6075331;23;88664;-83
2022/07/15 12:26:52;;;;;;;7.68;1.50;;;24.80;42.10;;;;;;6076038;23;87057;-83
2022/07/15 12:29:21;;;;;;;8.52;1.25;;;24.90;42.60;;;;;;6076874;23;86570;-84
2022/07/15 12:31:58;;;;;;;5.28;1.20;;;24.90;42.60;;;;;;6076382;23;90652;-83
2022/07/15 12:34:46;;;;;;;5.88;1.30;;;24.90;42.90;;;;;;6076542;23;88497;-83
2022/07/15 12:37:17;;;;;;;5.57;1.30;;;24.80;43.10;;;;;;6074837;23;88324;-83
2022/07/15 12:40:06;;;;;;;4.20;1.05;;;24.80;43.00;;;;;;6049416;23;87768;-83
2022/07/15 12:42:37;;;;;;;3.28;1.00;;;24.80;43.10;;;;;;6075302;23;87150;-83
2022/07/15 12:45:14;;;;;;;5.47;1.08;;;24.80;42.90;;;;;;6076334;23;88715;-83
2022/07/15 12:48:07;;;;;;;10.27;1.33;;;24.80;42.90;;;;;;6075944;23;87784;-83
2022/07/15 12:50:57;;;;;;;6.07;1.10;;;24.80;43.00;;;;;;6076384;23;86802;-83
2022/07/15 12:53:26;;;;;;;5.88;1.25;;;24.80;42.90;;;;;;6075756;23;87541;-83
2022/07/15 12:55:59;;;;;;;1.90;0.80;;;24.80;42.70;;;;;;6076227;23;87292;-83
2022/07/15 12:58:27;;;;;;;4.22;1.02;;;24.80;42.70;;;;;;6076167;23;87801;-84
2022/07/15 13:01:10;;;;;;;3.23;0.90;;;24.80;42.70;;;;;;6077142;23;86785;-83
2022/07/15 13:03:36;;;;;;;2.92;1.10;;;24.80;42.70;;;;;;6076043;23;87164;-84
2022/07/15 13:06:03;;;;;;;2.65;1.00;;;24.80;42.60;;;;;;6075650;23;89110;-83
2022/07/15 13:08:34;;;;;;;2.28;0.80;;;24.80;42.60;;;;;;6075204;23;90571;-84